sensor_id;sensor_type;location;lat;lon;timestamp;pressure;altitude;pressure_sealevel;temperature;humidity
65376;BME280;51976;47.332;9.404;2023-06-01T00:00:50;92792.34;;;15.06;60.63
65376;BME280;51976;47.332;9.404;2023-06-01T00:03:15;92745.41;;;14.75;60.20
65376;BME280;51976;47.332;9.404;2023-06-01T00:05:41;92747.66;;;14.81;60.25
65376;BME280;51976;47.332;9.404;2023-06-01T00:08:06;92795.00;;;14.53;61.95
65376;BME280;51976;47.332;9.404;2023-06-01T00:10:32;92755.47;;;14.16;62.31
65376;BME280;51976;47.332;9.404;2023-06-01T00:12:58;92800.91;;;14.69;61.64
65376;BME280;51976;47.332;9.404;2023-06-01T00:15:23;92754.09;;;14.41;61.08
65376;BME280;51976;47.332;9.404;2023-06-01T00:17:48;92804.41;;;14.69;60.98
65376;BME280;51976;47.332;9.404;2023-06-01T00:20:17;92796.09;;;14.66;61.19
65376;BME280;51976;47.332;9.404;2023-06-01T00:22:43;92798.19;;;14.69;61.24
65376;BME280;51976;47.332;9.404;2023-06-01T00:25:08;92769.94;;;14.47;61.00
65376;BME280;51976;47.332;9.404;2023-06-01T00:27:34;92804.09;;;14.48;61.79
65376;BME280;51976;47.332;9.404;2023-06-01T00:29:59;92751.22;;;13.87;62.67
65376;BME280;51976;47.332;9.404;2023-06-01T00:32:25;92799.25;;;13.96;63.33
65376;BME280;51976;47.332;9.404;2023-06-01T00:34:50;92807.00;;;13.88;63.91
65376;BME280;51976;47.332;9.404;2023-06-01T00:37:16;92804.00;;;13.90;63.99
65376;BME280;51976;47.332;9.404;2023-06-01T00:39:41;92782.53;;;13.94;63.71
65376;BME280;51976;47.332;9.404;2023-06-01T00:42:07;92782.09;;;14.00;63.47
65376;BME280;51976;47.332;9.404;2023-06-01T00:44:32;92800.75;;;14.15;63.25
65376;BME280;51976;47.332;9.404;2023-06-01T00:46:58;92756.03;;;13.91;63.20
65376;BME280;51976;47.332;9.404;2023-06-01T00:49:25;92788.19;;;14.06;63.71
65376;BME280;51976;47.332;9.404;2023-06-01T00:51:51;92789.75;;;13.84;64.24
65376;BME280;51976;47.332;9.404;2023-06-01T00:54:17;92736.63;;;13.34;64.83
65376;BME280;51976;47.332;9.404;2023-06-01T00:56:42;92764.38;;;13.80;64.05
65376;BME280;51976;47.332;9.404;2023-06-01T00:59:08;92795.44;;;14.10;63.12
65376;BME280;51976;47.332;9.404;2023-06-01T01:01:33;92798.09;;;14.24;62.78
65376;BME280;51976;47.332;9.404;2023-06-01T01:03:59;92788.34;;;14.23;62.47
65376;BME280;51976;47.332;9.404;2023-06-01T01:06:44;92790.25;;;14.22;62.85
65376;BME280;51976;47.332;9.404;2023-06-01T01:09:22;92789.84;;;14.29;62.41
65376;BME280;51976;47.332;9.404;2023-06-01T01:12:09;92733.75;;;13.94;62.48
65376;BME280;51976;47.332;9.404;2023-06-01T01:14:49;92792.06;;;14.27;62.34
65376;BME280;51976;47.332;9.404;2023-06-01T01:17:26;92755.47;;;13.66;63.57
65376;BME280;51976;47.332;9.404;2023-06-01T01:20:06;92785.25;;;13.80;63.72
65376;BME280;51976;47.332;9.404;2023-06-01T01:23:05;92788.25;;;13.78;63.71
65376;BME280;51976;47.332;9.404;2023-06-01T01:26:08;92753.97;;;13.60;63.50
65376;BME280;51976;47.332;9.404;2023-06-01T01:28:48;92740.22;;;13.43;63.52
65376;BME280;51976;47.332;9.404;2023-06-01T01:31:17;92787.44;;;13.78;63.50
65376;BME280;51976;47.332;9.404;2023-06-01T01:33:46;92787.31;;;13.97;63.04
65376;BME280;51976;47.332;9.404;2023-06-01T01:36:12;92782.63;;;13.75;63.03
65376;BME280;51976;47.332;9.404;2023-06-01T01:38:38;92793.59;;;13.56;63.86
65376;BME280;51976;47.332;9.404;2023-06-01T01:41:04;92780.66;;;13.67;63.41
65376;BME280;51976;47.332;9.404;2023-06-01T01:43:31;92792.75;;;13.69;63.45
65376;BME280;51976;47.332;9.404;2023-06-01T01:46:06;92790.84;;;13.83;63.37
65376;BME280;51976;47.332;9.404;2023-06-01T01:51:57;92789.75;;;13.84;63.02
65376;BME280;51976;47.332;9.404;2023-06-01T01:54:24;92779.13;;;13.74;63.23
65376;BME280;51976;47.332;9.404;2023-06-01T01:56:50;92667.59;;;12.63;64.40
65376;BME280;51976;47.332;9.404;2023-06-01T01:59:18;92758.19;;;13.25;64.15
65376;BME280;51976;47.332;9.404;2023-06-01T02:01:44;92752.97;;;13.29;63.99
65376;BME280;51976;47.332;9.404;2023-06-01T02:04:10;92779.53;;;13.54;63.81
65376;BME280;51976;47.332;9.404;2023-06-01T02:06:36;92733.22;;;13.28;63.93
65376;BME280;51976;47.332;9.404;2023-06-01T02:09:03;92774.22;;;13.63;63.69
65376;BME280;51976;47.332;9.404;2023-06-01T02:11:31;92749.56;;;13.50;63.70
65376;BME280;51976;47.332;9.404;2023-06-01T02:13:56;92746.88;;;13.37;63.69
65376;BME280;51976;47.332;9.404;2023-06-01T02:16:22;92779.84;;;13.25;64.38
65376;BME280;51976;47.332;9.404;2023-06-01T02:18:47;92786.91;;;13.07;65.13
65376;BME280;51976;47.332;9.404;2023-06-01T02:21:13;92720.00;;;12.67;64.96
65376;BME280;51976;47.332;9.404;2023-06-01T02:23:39;92760.06;;;13.11;64.50
65376;BME280;51976;47.332;9.404;2023-06-01T02:26:05;92735.69;;;12.97;64.55
65376;BME280;51976;47.332;9.404;2023-06-01T02:28:31;92783.34;;;13.26;64.48
65376;BME280;51976;47.332;9.404;2023-06-01T02:30:56;92782.75;;;13.42;64.23
65376;BME280;51976;47.332;9.404;2023-06-01T02:33:22;92723.88;;;13.07;63.91
65376;BME280;51976;47.332;9.404;2023-06-01T02:35:50;92692.44;;;12.65;64.55
65376;BME280;51976;47.332;9.404;2023-06-01T02:38:16;92722.63;;;12.72;65.02
65376;BME280;51976;47.332;9.404;2023-06-01T02:40:41;92716.94;;;12.41;66.17
65376;BME280;51976;47.332;9.404;2023-06-01T02:43:06;92769.63;;;12.76;66.35
65376;BME280;51976;47.332;9.404;2023-06-01T02:45:32;92766.13;;;12.89;65.94
65376;BME280;51976;47.332;9.404;2023-06-01T02:47:57;92764.84;;;13.00;65.48
65376;BME280;51976;47.332;9.404;2023-06-01T02:50:22;92768.09;;;13.16;65.24
65376;BME280;51976;47.332;9.404;2023-06-01T02:52:48;92776.47;;;13.14;65.33
65376;BME280;51976;47.332;9.404;2023-06-01T02:55:13;92780.81;;;13.15;65.00
65376;BME280;51976;47.332;9.404;2023-06-01T02:57:38;92774.97;;;12.95;65.66
65376;BME280;51976;47.332;9.404;2023-06-01T03:00:04;92720.50;;;12.55;65.79
65376;BME280;51976;47.332;9.404;2023-06-01T03:02:41;92703.56;;;12.49;65.72
65376;BME280;51976;47.332;9.404;2023-06-01T03:05:07;92729.75;;;12.81;65.19
65376;BME280;51976;47.332;9.404;2023-06-01T03:07:32;92712.91;;;12.71;64.99
65376;BME280;51976;47.332;9.404;2023-06-01T03:09:58;92753.59;;;12.93;65.28
65376;BME280;51976;47.332;9.404;2023-06-01T03:12:23;92734.53;;;12.71;65.64
65376;BME280;51976;47.332;9.404;2023-06-01T03:14:49;92777.44;;;12.91;65.73
65376;BME280;51976;47.332;9.404;2023-06-01T03:17:14;92774.34;;;12.84;66.02
65376;BME280;51976;47.332;9.404;2023-06-01T03:19:40;92772.84;;;12.92;65.72
65376;BME280;51976;47.332;9.404;2023-06-01T03:22:05;92777.75;;;12.89;65.80
65376;BME280;51976;47.332;9.404;2023-06-01T03:24:31;92715.28;;;12.59;65.12
65376;BME280;51976;47.332;9.404;2023-06-01T03:26:57;92769.94;;;12.88;65.57
65376;BME280;51976;47.332;9.404;2023-06-01T03:29:23;92718.09;;;12.53;65.65
65376;BME280;51976;47.332;9.404;2023-06-01T03:31:48;92708.03;;;12.40;65.85
65376;BME280;51976;47.332;9.404;2023-06-01T03:34:14;92781.09;;;13.00;65.38
65376;BME280;51976;47.332;9.404;2023-06-01T03:36:39;92719.69;;;12.54;65.76
65376;BME280;51976;47.332;9.404;2023-06-01T03:39:05;92764.63;;;12.97;65.32
65376;BME280;51976;47.332;9.404;2023-06-01T03:41:34;92769.47;;;13.13;65.00
65376;BME280;51976;47.332;9.404;2023-06-01T03:44:00;92772.91;;;13.19;64.67
65376;BME280;51976;47.332;9.404;2023-06-01T03:46:25;92750.81;;;12.98;64.79
65376;BME280;51976;47.332;9.404;2023-06-01T03:48:50;92771.88;;;13.15;64.53
65376;BME280;51976;47.332;9.404;2023-06-01T03:51:17;92778.03;;;13.20;64.46
65376;BME280;51976;47.332;9.404;2023-06-01T03:53:42;92713.13;;;12.74;64.44
65376;BME280;51976;47.332;9.404;2023-06-01T03:56:08;92721.81;;;12.71;64.70
65376;BME280;51976;47.332;9.404;2023-06-01T03:58:33;92763.03;;;12.82;65.06
65376;BME280;51976;47.332;9.404;2023-06-01T04:00:59;92735.19;;;12.49;65.80
65376;BME280;51976;47.332;9.404;2023-06-01T04:03:26;92753.41;;;12.43;66.15
65376;BME280;51976;47.332;9.404;2023-06-01T04:05:52;92781.97;;;12.49;66.68
65376;BME280;51976;47.332;9.404;2023-06-01T04:08:24;92758.50;;;12.45;66.74
65376;BME280;51976;47.332;9.404;2023-06-01T04:10:49;92760.13;;;12.60;66.27
65376;BME280;51976;47.332;9.404;2023-06-01T04:13:15;92791.19;;;12.81;66.09
65376;BME280;51976;47.332;9.404;2023-06-01T04:15:40;92746.06;;;12.76;65.76
65376;BME280;51976;47.332;9.404;2023-06-01T04:18:06;92787.00;;;13.02;65.53
65376;BME280;51976;47.332;9.404;2023-06-01T04:20:32;92733.72;;;12.57;65.66
65376;BME280;51976;47.332;9.404;2023-06-01T04:22:57;92772.13;;;12.86;65.58
65376;BME280;51976;47.332;9.404;2023-06-01T04:25:23;92785.69;;;13.00;65.35
65376;BME280;51976;47.332;9.404;2023-06-01T04:27:49;92786.38;;;12.92;65.66
65376;BME280;51976;47.332;9.404;2023-06-01T04:30:16;92776.56;;;12.82;65.76
65376;BME280;51976;47.332;9.404;2023-06-01T04:32:42;92777.97;;;12.93;65.49
65376;BME280;51976;47.332;9.404;2023-06-01T04:35:09;92796.81;;;12.84;66.01
65376;BME280;51976;47.332;9.404;2023-06-01T04:37:36;92669.50;;;12.02;66.49
65376;BME280;51976;47.332;9.404;2023-06-01T04:40:04;92798.13;;;12.68;66.66
65376;BME280;51976;47.332;9.404;2023-06-01T04:42:34;92805.75;;;12.66;66.90
65376;BME280;51976;47.332;9.404;2023-06-01T04:45:00;92800.22;;;12.58;67.24
65376;BME280;51976;47.332;9.404;2023-06-01T04:47:30;92797.34;;;12.68;67.13
65376;BME280;51976;47.332;9.404;2023-06-01T04:49:56;92723.88;;;12.47;66.26
65376;BME280;51976;47.332;9.404;2023-06-01T04:52:22;92775.69;;;13.00;65.78
65376;BME280;51976;47.332;9.404;2023-06-01T04:54:48;92776.84;;;12.94;65.59
65376;BME280;51976;47.332;9.404;2023-06-01T04:57:13;92776.84;;;12.94;65.92
65376;BME280;51976;47.332;9.404;2023-06-01T04:59:41;92805.16;;;13.02;66.31
65376;BME280;51976;47.332;9.404;2023-06-01T05:02:07;92766.38;;;13.06;65.71
65376;BME280;51976;47.332;9.404;2023-06-01T05:04:33;92773.72;;;13.47;64.96
65376;BME280;51976;47.332;9.404;2023-06-01T05:06:58;92794.56;;;14.23;67.13
65376;BME280;51976;47.332;9.404;2023-06-01T05:09:23;92796.00;;;15.33;72.56
65376;BME280;51976;47.332;9.404;2023-06-01T05:11:49;92787.69;;;16.25;69.29
65376;BME280;51976;47.332;9.404;2023-06-01T05:14:14;92750.72;;;16.59;68.03
65376;BME280;51976;47.332;9.404;2023-06-01T05:16:40;92789.06;;;17.26;65.50
65376;BME280;51976;47.332;9.404;2023-06-01T05:19:05;92732.34;;;17.29;62.67
65376;BME280;51976;47.332;9.404;2023-06-01T05:21:30;92737.03;;;17.66;61.41
65376;BME280;51976;47.332;9.404;2023-06-01T05:23:59;92741.78;;;17.78;60.41
65376;BME280;51976;47.332;9.404;2023-06-01T05:26:24;92795.69;;;17.64;59.96
65376;BME280;51976;47.332;9.404;2023-06-01T05:28:50;92751.31;;;17.16;55.04
65376;BME280;51976;47.332;9.404;2023-06-01T05:31:15;92801.13;;;18.60;55.46
65376;BME280;51976;47.332;9.404;2023-06-01T05:33:41;92778.53;;;17.63;53.53
65376;BME280;51976;47.332;9.404;2023-06-01T05:36:07;92772.47;;;17.11;54.31
65376;BME280;51976;47.332;9.404;2023-06-01T05:38:32;92803.06;;;16.99;54.67
65376;BME280;51976;47.332;9.404;2023-06-01T05:40:57;92801.97;;;16.83;54.99
65376;BME280;51976;47.332;9.404;2023-06-01T05:43:23;92776.81;;;16.86;54.79
65376;BME280;51976;47.332;9.404;2023-06-01T05:45:49;92742.22;;;16.95;54.29
65376;BME280;51976;47.332;9.404;2023-06-01T05:48:14;92747.63;;;17.12;53.86
65376;BME280;51976;47.332;9.404;2023-06-01T05:50:40;92797.69;;;17.46;53.65
65376;BME280;51976;47.332;9.404;2023-06-01T05:53:07;92790.06;;;17.77;52.80
65376;BME280;51976;47.332;9.404;2023-06-01T05:55:32;92727.38;;;17.77;52.52
65376;BME280;51976;47.332;9.404;2023-06-01T05:57:58;92798.22;;;18.36;52.12
65376;BME280;51976;47.332;9.404;2023-06-01T06:00:23;92737.31;;;18.03;51.68
65376;BME280;51976;47.332;9.404;2023-06-01T06:02:49;92802.47;;;18.96;50.60
65376;BME280;51976;47.332;9.404;2023-06-01T06:05:15;92798.59;;;18.97;49.99
65376;BME280;51976;47.332;9.404;2023-06-01T06:07:41;92730.88;;;18.49;50.40
65376;BME280;51976;47.332;9.404;2023-06-01T06:10:07;92794.88;;;18.60;50.80
65376;BME280;51976;47.332;9.404;2023-06-01T06:12:32;92753.59;;;18.62;50.19
65376;BME280;51976;47.332;9.404;2023-06-01T06:14:58;92783.94;;;18.10;51.37
65376;BME280;51976;47.332;9.404;2023-06-01T06:17:23;92789.66;;;18.46;50.21
65376;BME280;51976;47.332;9.404;2023-06-01T06:19:51;92802.09;;;18.85;49.77
65376;BME280;51976;47.332;9.404;2023-06-01T06:22:17;92796.88;;;18.72;49.75
65376;BME280;51976;47.332;9.404;2023-06-01T06:24:43;92797.59;;;18.60;49.99
65376;BME280;51976;47.332;9.404;2023-06-01T06:27:09;92791.81;;;19.03;48.87
65376;BME280;51976;47.332;9.404;2023-06-01T06:29:35;92778.09;;;19.57;47.51
65376;BME280;51976;47.332;9.404;2023-06-01T06:32:01;92797.41;;;19.40;47.05
65376;BME280;51976;47.332;9.404;2023-06-01T06:34:27;92756.75;;;19.05;47.55
65376;BME280;51976;47.332;9.404;2023-06-01T06:37:00;92757.47;;;19.72;46.56
65376;BME280;51976;47.332;9.404;2023-06-01T06:39:26;92792.91;;;19.56;45.96
65376;BME280;51976;47.332;9.404;2023-06-01T06:41:54;92799.88;;;19.33;45.96
65376;BME280;51976;47.332;9.404;2023-06-01T06:44:19;92771.25;;;19.75;45.28
65376;BME280;51976;47.332;9.404;2023-06-01T06:46:45;92797.84;;;20.11;44.62
65376;BME280;51976;47.332;9.404;2023-06-01T06:49:10;92750.31;;;20.04;44.14
65376;BME280;51976;47.332;9.404;2023-06-01T06:51:37;92745.34;;;20.58;51.00
65376;BME280;51976;47.332;9.404;2023-06-01T06:54:04;92776.88;;;21.48;43.06
65376;BME280;51976;47.332;9.404;2023-06-01T06:56:31;92799.94;;;20.91;43.29
65376;BME280;51976;47.332;9.404;2023-06-01T06:58:57;92739.75;;;20.67;47.81
65376;BME280;51976;47.332;9.404;2023-06-01T07:01:22;92801.78;;;21.15;43.78
65376;BME280;51976;47.332;9.404;2023-06-01T07:03:53;92776.94;;;19.70;45.77
65376;BME280;51976;47.332;9.404;2023-06-01T07:06:19;92800.63;;;19.54;46.73
65376;BME280;51976;47.332;9.404;2023-06-01T07:08:46;92798.16;;;19.61;46.93
65376;BME280;51976;47.332;9.404;2023-06-01T07:11:15;92800.00;;;20.67;45.68
65376;BME280;51976;47.332;9.404;2023-06-01T07:13:42;92789.22;;;20.86;45.15
65376;BME280;51976;47.332;9.404;2023-06-01T07:16:08;92804.91;;;20.37;46.68
65376;BME280;51976;47.332;9.404;2023-06-01T07:18:33;92801.38;;;20.36;46.96
65376;BME280;51976;47.332;9.404;2023-06-01T07:20:58;92786.44;;;20.58;47.96
65376;BME280;51976;47.332;9.404;2023-06-01T07:23:24;92790.31;;;20.57;46.61
65376;BME280;51976;47.332;9.404;2023-06-01T07:25:50;92807.06;;;21.08;46.22
65376;BME280;51976;47.332;9.404;2023-06-01T07:28:15;92774.09;;;21.04;45.87
65376;BME280;51976;47.332;9.404;2023-06-01T07:30:41;92778.81;;;19.90;48.42
65376;BME280;51976;47.332;9.404;2023-06-01T07:33:07;92792.50;;;20.51;47.84
65376;BME280;51976;47.332;9.404;2023-06-01T07:35:33;92786.13;;;20.47;48.14
65376;BME280;51976;47.332;9.404;2023-06-01T07:37:58;92773.31;;;20.27;48.14
65376;BME280;51976;47.332;9.404;2023-06-01T07:40:25;92784.06;;;20.44;47.30
65376;BME280;51976;47.332;9.404;2023-06-01T07:42:50;92790.91;;;19.44;49.13
65376;BME280;51976;47.332;9.404;2023-06-01T07:45:17;92736.28;;;19.23;49.09
65376;BME280;51976;47.332;9.404;2023-06-01T07:47:44;92791.88;;;19.27;49.15
65376;BME280;51976;47.332;9.404;2023-06-01T07:50:09;92778.22;;;19.60;48.39
65376;BME280;51976;47.332;9.404;2023-06-01T07:52:36;92790.22;;;19.92;47.89
65376;BME280;51976;47.332;9.404;2023-06-01T07:55:02;92797.84;;;20.11;47.14
65376;BME280;51976;47.332;9.404;2023-06-01T07:57:28;92792.72;;;20.22;46.64
65376;BME280;51976;47.332;9.404;2023-06-01T07:59:54;92762.34;;;19.54;47.83
65376;BME280;51976;47.332;9.404;2023-06-01T08:02:19;92773.81;;;19.92;47.17
65376;BME280;51976;47.332;9.404;2023-06-01T08:04:45;92778.00;;;19.78;47.48
65376;BME280;51976;47.332;9.404;2023-06-01T08:07:12;92792.50;;;19.90;47.69
65376;BME280;51976;47.332;9.404;2023-06-01T08:09:39;92800.22;;;19.76;48.57
65376;BME280;51976;47.332;9.404;2023-06-01T08:12:05;92801.00;;;19.65;48.81
65376;BME280;51976;47.332;9.404;2023-06-01T08:14:31;92784.75;;;20.17;48.01
65376;BME280;51976;47.332;9.404;2023-06-01T08:16:59;92761.91;;;19.19;49.46
65376;BME280;51976;47.332;9.404;2023-06-01T08:19:28;92717.78;;;19.41;48.54
65376;BME280;51976;47.332;9.404;2023-06-01T08:21:56;92724.94;;;19.46;48.98
65376;BME280;51976;47.332;9.404;2023-06-01T08:24:22;92770.00;;;19.60;49.58
65376;BME280;51976;47.332;9.404;2023-06-01T08:26:48;92788.59;;;19.79;49.33
65376;BME280;51976;47.332;9.404;2023-06-01T08:29:13;92789.88;;;20.06;48.82
65376;BME280;51976;47.332;9.404;2023-06-01T08:31:39;92771.72;;;20.02;48.79
65376;BME280;51976;47.332;9.404;2023-06-01T08:34:05;92788.59;;;20.04;48.89
65376;BME280;51976;47.332;9.404;2023-06-01T08:36:31;92763.75;;;20.09;48.01
65376;BME280;51976;47.332;9.404;2023-06-01T08:38:58;92788.41;;;20.21;48.47
65376;BME280;51976;47.332;9.404;2023-06-01T08:41:35;92743.81;;;19.84;48.58
65376;BME280;51976;47.332;9.404;2023-06-01T08:44:04;92791.72;;;20.39;48.10
65376;BME280;51976;47.332;9.404;2023-06-01T08:46:33;92773.00;;;20.16;48.72
65376;BME280;51976;47.332;9.404;2023-06-01T08:48:59;92719.53;;;19.82;48.21
65376;BME280;51976;47.332;9.404;2023-06-01T08:51:27;92780.66;;;20.23;48.32
65376;BME280;51976;47.332;9.404;2023-06-01T08:53:56;92786.22;;;20.39;48.06
65376;BME280;51976;47.332;9.404;2023-06-01T08:56:23;92782.94;;;20.45;47.72
65376;BME280;51976;47.332;9.404;2023-06-01T08:58:52;92790.22;;;20.17;48.28
65376;BME280;51976;47.332;9.404;2023-06-01T09:01:19;92763.09;;;20.24;48.02
65376;BME280;51976;47.332;9.404;2023-06-01T09:03:47;92784.28;;;20.15;48.00
65376;BME280;51976;47.332;9.404;2023-06-01T09:06:13;92760.78;;;20.02;48.39
65376;BME280;51976;47.332;9.404;2023-06-01T09:08:39;92776.50;;;20.29;47.87
65376;BME280;51976;47.332;9.404;2023-06-01T09:11:04;92758.38;;;20.24;47.93
65376;BME280;51976;47.332;9.404;2023-06-01T09:13:35;92773.34;;;20.51;48.33
65376;BME280;51976;47.332;9.404;2023-06-01T09:16:03;92786.09;;;20.59;48.49
65376;BME280;51976;47.332;9.404;2023-06-01T09:18:32;92783.00;;;20.61;48.25
65376;BME280;51976;47.332;9.404;2023-06-01T09:21:12;92777.28;;;20.78;47.90
65376;BME280;51976;47.332;9.404;2023-06-01T09:23:39;92699.41;;;20.27;47.10
65376;BME280;51976;47.332;9.404;2023-06-01T09:26:06;92723.41;;;20.18;48.26
65376;BME280;51976;47.332;9.404;2023-06-01T09:28:53;92783.34;;;20.59;48.63
65376;BME280;51976;47.332;9.404;2023-06-01T09:31:39;92777.44;;;20.45;48.89
65376;BME280;51976;47.332;9.404;2023-06-01T09:34:07;92767.25;;;20.58;49.04
65376;BME280;51976;47.332;9.404;2023-06-01T09:36:33;92771.94;;;20.33;49.60
65376;BME280;51976;47.332;9.404;2023-06-01T09:39:07;92785.16;;;20.68;48.48
65376;BME280;51976;47.332;9.404;2023-06-01T09:41:57;92783.38;;;20.47;49.34
65376;BME280;51976;47.332;9.404;2023-06-01T09:44:31;92761.94;;;20.37;49.06
65376;BME280;51976;47.332;9.404;2023-06-01T09:47:04;92782.19;;;20.60;48.74
65376;BME280;51976;47.332;9.404;2023-06-01T09:49:33;92776.94;;;20.68;48.70
65376;BME280;51976;47.332;9.404;2023-06-01T09:52:14;92782.03;;;20.81;48.54
65376;BME280;51976;47.332;9.404;2023-06-01T09:54:45;92773.91;;;20.85;49.01
65376;BME280;51976;47.332;9.404;2023-06-01T09:57:12;92768.19;;;20.90;48.33
65376;BME280;51976;47.332;9.404;2023-06-01T09:59:45;92764.28;;;20.63;49.79
65376;BME280;51976;47.332;9.404;2023-06-01T10:02:15;92725.63;;;20.52;49.35
65376;BME280;51976;47.332;9.404;2023-06-01T10:04:45;92765.47;;;20.90;49.71
65376;BME280;51976;47.332;9.404;2023-06-01T10:07:12;92762.72;;;20.90;48.93
65376;BME280;51976;47.332;9.404;2023-06-01T10:09:41;92744.69;;;20.89;48.57
65376;BME280;51976;47.332;9.404;2023-06-01T10:12:07;92698.53;;;20.11;49.22
65376;BME280;51976;47.332;9.404;2023-06-01T10:14:36;92744.81;;;20.80;48.84
65376;BME280;51976;47.332;9.404;2023-06-01T10:17:03;92699.91;;;20.05;49.21
65376;BME280;51976;47.332;9.404;2023-06-01T10:19:29;92662.56;;;19.72;49.97
65376;BME280;51976;47.332;9.404;2023-06-01T10:21:56;92767.09;;;20.79;49.48
65376;BME280;51976;47.332;9.404;2023-06-01T10:24:22;92740.69;;;20.86;49.19
65376;BME280;51976;47.332;9.404;2023-06-01T10:27:09;92718.25;;;20.41;49.47
65376;BME280;51976;47.332;9.404;2023-06-01T10:29:37;92744.75;;;20.77;49.55
65376;BME280;51976;47.332;9.404;2023-06-01T10:32:02;92757.91;;;20.99;49.02
65376;BME280;51976;47.332;9.404;2023-06-01T10:34:42;92768.50;;;20.73;48.80
65376;BME280;51976;47.332;9.404;2023-06-01T10:37:10;92762.38;;;20.91;48.53
65376;BME280;51976;47.332;9.404;2023-06-01T10:39:36;92665.41;;;20.28;48.33
65376;BME280;51976;47.332;9.404;2023-06-01T10:44:56;92755.16;;;20.99;47.75
65376;BME280;51976;47.332;9.404;2023-06-01T10:47:43;92742.50;;;21.22;47.47
65376;BME280;51976;47.332;9.404;2023-06-01T10:50:09;92743.66;;;21.21;47.51
65376;BME280;51976;47.332;9.404;2023-06-01T10:52:38;92721.13;;;21.00;48.80
65376;BME280;51976;47.332;9.404;2023-06-01T10:55:20;92731.91;;;21.09;47.89
65376;BME280;51976;47.332;9.404;2023-06-01T10:57:46;92740.59;;;21.11;47.84
65376;BME280;51976;47.332;9.404;2023-06-01T11:00:24;92644.44;;;20.88;47.79
65376;BME280;51976;47.332;9.404;2023-06-01T11:02:57;92744.91;;;21.40;47.80
65376;BME280;51976;47.332;9.404;2023-06-01T11:05:44;92723.63;;;21.49;47.62
65376;BME280;51976;47.332;9.404;2023-06-01T11:08:49;92745.31;;;21.54;47.04
65376;BME280;51976;47.332;9.404;2023-06-01T11:11:15;92749.56;;;21.99;46.60
65376;BME280;51976;47.332;9.404;2023-06-01T11:13:41;92756.97;;;21.67;46.74
65376;BME280;51976;47.332;9.404;2023-06-01T11:16:27;92736.09;;;21.62;46.92
65376;BME280;51976;47.332;9.404;2023-06-01T11:19:01;92740.19;;;21.52;46.87
65376;BME280;51976;47.332;9.404;2023-06-01T11:21:34;92738.69;;;21.55;46.52
65376;BME280;51976;47.332;9.404;2023-06-01T11:24:04;92735.56;;;21.72;46.26
65376;BME280;51976;47.332;9.404;2023-06-01T11:26:37;92673.09;;;21.34;46.92
65376;BME280;51976;47.332;9.404;2023-06-01T11:29:16;92709.56;;;21.50;47.03
65376;BME280;51976;47.332;9.404;2023-06-01T11:31:46;92741.25;;;21.79;45.89
65376;BME280;51976;47.332;9.404;2023-06-01T11:34:15;92713.69;;;21.28;46.07
65376;BME280;51976;47.332;9.404;2023-06-01T11:36:43;92732.19;;;21.47;46.61
65376;BME280;51976;47.332;9.404;2023-06-01T11:39:20;92722.66;;;21.73;45.72
65376;BME280;51976;47.332;9.404;2023-06-01T11:41:50;92688.84;;;21.53;46.01
65376;BME280;51976;47.332;9.404;2023-06-01T11:44:17;92726.00;;;21.98;45.30
65376;BME280;51976;47.332;9.404;2023-06-01T11:46:52;92727.06;;;21.93;46.30
65376;BME280;51976;47.332;9.404;2023-06-01T11:49:18;92715.69;;;22.07;46.01
65376;BME280;51976;47.332;9.404;2023-06-01T11:51:44;92704.88;;;21.82;46.26
65376;BME280;51976;47.332;9.404;2023-06-01T11:54:10;92725.78;;;22.03;45.98
65376;BME280;51976;47.332;9.404;2023-06-01T11:56:36;92700.88;;;21.95;46.01
65376;BME280;51976;47.332;9.404;2023-06-01T11:59:05;92711.75;;;22.23;45.51
65376;BME280;51976;47.332;9.404;2023-06-01T12:01:45;92712.53;;;22.24;45.49
65376;BME280;51976;47.332;9.404;2023-06-01T12:04:19;92672.25;;;21.96;45.25
65376;BME280;51976;47.332;9.404;2023-06-01T12:06:46;92709.81;;;21.77;46.15
65376;BME280;51976;47.332;9.404;2023-06-01T12:09:13;92645.94;;;21.45;46.51
65376;BME280;51976;47.332;9.404;2023-06-01T12:11:41;92665.31;;;21.52;46.63
65376;BME280;51976;47.332;9.404;2023-06-01T12:14:08;92703.88;;;21.90;45.81
65376;BME280;51976;47.332;9.404;2023-06-01T12:16:57;92678.00;;;22.23;45.20
65376;BME280;51976;47.332;9.404;2023-06-01T12:19:24;92697.22;;;22.23;46.47
65376;BME280;51976;47.332;9.404;2023-06-01T12:21:53;92696.97;;;21.96;46.87
65376;BME280;51976;47.332;9.404;2023-06-01T12:24:27;92692.44;;;22.20;46.89
65376;BME280;51976;47.332;9.404;2023-06-01T12:26:54;92697.75;;;22.28;46.20
65376;BME280;51976;47.332;9.404;2023-06-01T12:29:34;92695.63;;;22.22;46.12
65376;BME280;51976;47.332;9.404;2023-06-01T12:32:01;92700.03;;;22.26;45.82
65376;BME280;51976;47.332;9.404;2023-06-01T12:34:26;92676.41;;;22.22;46.40
65376;BME280;51976;47.332;9.404;2023-06-01T12:36:52;92690.72;;;22.31;45.31
65376;BME280;51976;47.332;9.404;2023-06-01T12:39:31;92643.00;;;21.69;46.28
65376;BME280;51976;47.332;9.404;2023-06-01T12:42:01;92691.84;;;22.11;45.96
65376;BME280;51976;47.332;9.404;2023-06-01T12:44:28;92641.47;;;22.03;45.24
65376;BME280;51976;47.332;9.404;2023-06-01T12:46:57;92637.75;;;21.95;45.22
65376;BME280;51976;47.332;9.404;2023-06-01T12:49:24;92690.47;;;22.20;46.02
65376;BME280;51976;47.332;9.404;2023-06-01T12:51:50;92658.13;;;22.29;45.51
65376;BME280;51976;47.332;9.404;2023-06-01T12:54:16;92670.88;;;22.38;45.52
65376;BME280;51976;47.332;9.404;2023-06-01T12:56:46;92606.44;;;22.16;44.77
65376;BME280;51976;47.332;9.404;2023-06-01T12:59:12;92650.41;;;22.74;43.67
65376;BME280;51976;47.332;9.404;2023-06-01T13:01:38;92648.69;;;22.66;42.74
65376;BME280;51976;47.332;9.404;2023-06-01T13:04:03;92665.91;;;22.62;42.62
65376;BME280;51976;47.332;9.404;2023-06-01T13:06:29;92670.00;;;22.72;42.08
65376;BME280;51976;47.332;9.404;2023-06-01T13:08:54;92613.69;;;22.43;42.35
65376;BME280;51976;47.332;9.404;2023-06-01T13:11:21;92627.34;;;22.20;42.73